createdAt,value
2018-10-06T00:00:32.381Z,15.90
2018-10-06T00:03:00.672Z,11.90
2018-10-06T00:05:28.982Z,16.17
2018-10-06T00:07:57.313Z,11.03
2018-10-06T00:10:25.605Z,14.20
2018-10-06T00:12:53.923Z,12.03
2018-10-06T00:15:22.209Z,11.90
2018-10-06T00:17:50.500Z,11.63
2018-10-06T00:20:18.785Z,15.93
2018-10-06T00:22:47.072Z,10.60
2018-10-06T00:25:15.390Z,11.20
2018-10-06T00:27:43.677Z,10.97
2018-10-06T00:30:11.968Z,13.43
2018-10-06T00:32:40.252Z,16.70
2018-10-06T00:35:08.532Z,10.67
2018-10-06T00:37:36.872Z,12.10
2018-10-06T00:40:05.228Z,12.70
2018-10-06T00:42:33.636Z,14.43
2018-10-06T00:45:02.159Z,27.50
2018-10-06T00:47:30.586Z,13.23
2018-10-06T00:49:59.011Z,14.73
2018-10-06T00:52:27.440Z,10.87
2018-10-06T00:54:55.856Z,13.83
2018-10-06T00:57:24.369Z,13.10
2018-10-06T00:59:52.820Z,13.30
2018-10-06T01:02:21.306Z,12.23
2018-10-06T01:04:49.752Z,9.83
2018-10-06T01:07:18.232Z,14.50
2018-10-06T01:09:46.688Z,13.57
2018-10-06T01:12:15.207Z,14.77
2018-10-06T01:14:43.588Z,11.53
2018-10-06T01:17:12.068Z,17.80
2018-10-06T01:19:40.443Z,10.00
2018-10-06T01:22:08.938Z,12.03
2018-10-06T01:24:37.384Z,16.67
2018-10-06T01:27:05.863Z,13.47
2018-10-06T01:29:34.460Z,16.83
2018-10-06T01:32:04.408Z,14.80
2018-10-06T01:34:33.056Z,12.23
2018-10-06T01:37:01.701Z,14.37
2018-10-06T01:39:30.677Z,13.47
2018-10-06T01:41:59.160Z,11.63
2018-10-06T01:44:27.641Z,16.20
2018-10-06T01:46:56.068Z,13.30
2018-10-06T01:49:24.652Z,10.73
2018-10-06T01:51:53.104Z,28.07
2018-10-06T01:54:21.531Z,13.70
2018-10-06T01:56:50.004Z,12.83
2018-10-06T01:59:18.501Z,13.47
2018-10-06T02:01:46.923Z,14.00
2018-10-06T02:04:15.335Z,12.13
2018-10-06T02:06:43.769Z,15.30
2018-10-06T02:09:12.169Z,18.30
2018-10-06T02:11:40.648Z,13.47
2018-10-06T02:14:09.068Z,11.93
2018-10-06T02:16:37.532Z,12.60
2018-10-06T02:19:05.934Z,16.97
2018-10-06T02:21:34.267Z,14.40
2018-10-06T02:24:02.696Z,14.23
2018-10-06T02:26:31.143Z,10.70
2018-10-06T02:28:59.562Z,11.80
2018-10-06T02:31:27.973Z,14.90
2018-10-06T02:33:56.439Z,17.00
2018-10-06T02:36:24.921Z,14.23
2018-10-06T02:38:53.408Z,11.43
2018-10-06T02:41:21.871Z,14.27
2018-10-06T02:43:50.308Z,16.23
2018-10-06T02:46:18.681Z,17.73
2018-10-06T02:48:47.072Z,15.70
2018-10-06T02:51:15.469Z,16.67
2018-10-06T02:53:43.889Z,14.80
2018-10-06T02:56:12.641Z,16.63
2018-10-06T02:58:41.172Z,14.77
2018-10-06T03:01:10.208Z,12.57
2018-10-06T03:03:38.747Z,19.53
2018-10-06T03:06:07.208Z,14.27
2018-10-06T03:08:35.620Z,15.33
2018-10-06T03:11:04.012Z,15.33
2018-10-06T03:13:32.464Z,23.90
2018-10-06T03:16:00.893Z,17.77
2018-10-06T03:18:29.414Z,17.87
2018-10-06T03:20:57.960Z,18.87
2018-10-06T03:23:26.412Z,14.50
2018-10-06T03:25:54.911Z,15.00
2018-10-06T03:28:23.367Z,17.50
2018-10-06T03:30:51.764Z,14.60
2018-10-06T03:33:20.234Z,14.87
2018-10-06T03:35:48.697Z,16.20
2018-10-06T03:38:17.163Z,13.33
2018-10-06T03:40:45.572Z,16.43
2018-10-06T03:43:13.980Z,10.03
2018-10-06T03:45:42.379Z,17.90
2018-10-06T03:48:10.848Z,12.50
2018-10-06T03:50:39.432Z,15.43
2018-10-06T03:53:07.833Z,18.43
2018-10-06T03:55:36.261Z,12.67
2018-10-06T03:58:04.759Z,16.73
2018-10-06T04:00:33.144Z,12.20
2018-10-06T04:03:01.612Z,16.03
2018-10-06T04:05:30.008Z,13.87
2018-10-06T04:07:59.228Z,14.40
2018-10-06T04:10:27.676Z,12.17
2018-10-06T04:12:56.012Z,16.57
2018-10-06T04:15:24.404Z,20.27
2018-10-06T04:17:52.800Z,18.93
2018-10-06T04:20:21.213Z,18.67
2018-10-06T04:22:49.565Z,13.20
2018-10-06T04:25:19.076Z,13.97
2018-10-06T04:27:47.464Z,11.20
2018-10-06T04:30:15.890Z,12.83
2018-10-06T04:32:44.299Z,13.37
2018-10-06T04:35:12.829Z,9.17
2018-10-06T04:37:41.225Z,10.90
2018-10-06T04:40:09.625Z,13.53
2018-10-06T04:42:38.075Z,9.87
2018-10-06T04:45:06.432Z,11.20
2018-10-06T04:47:35.057Z,13.20
2018-10-06T04:50:03.433Z,7.90
2018-10-06T04:52:31.798Z,10.13
2018-10-06T04:55:00.124Z,8.27
2018-10-06T04:57:28.604Z,7.20
2018-10-06T04:59:57.356Z,8.40
2018-10-06T05:02:25.861Z,11.90
2018-10-06T05:04:54.208Z,7.40
2018-10-06T05:07:22.556Z,10.70
2018-10-06T05:09:50.913Z,22.13
2018-10-06T05:12:19.271Z,7.07
2018-10-06T05:14:47.711Z,9.30
2018-10-06T05:17:16.120Z,8.47
2018-10-06T05:19:44.423Z,8.50
2018-10-06T05:22:12.750Z,9.33
2018-10-06T05:24:41.096Z,9.40
2018-10-06T05:27:09.461Z,6.70
2018-10-06T05:29:37.872Z,7.23
2018-10-06T05:32:06.332Z,5.23
2018-10-06T05:34:34.745Z,4.80
2018-10-06T05:37:03.052Z,5.77
2018-10-06T05:39:31.356Z,4.93
2018-10-06T05:41:59.648Z,5.70
2018-10-06T05:44:27.936Z,8.10
2018-10-06T05:46:56.225Z,10.20
2018-10-06T05:49:24.528Z,3.90
2018-10-06T05:51:52.824Z,6.57
2018-10-06T05:54:21.148Z,4.50
2018-10-06T05:56:49.445Z,3.90
2018-10-06T05:59:17.732Z,3.67
2018-10-06T06:01:46.033Z,5.27
2018-10-06T06:04:14.311Z,7.37
2018-10-06T06:06:42.609Z,8.40
2018-10-06T06:09:10.910Z,4.10
2018-10-06T06:11:39.212Z,5.60
2018-10-06T06:14:07.601Z,5.83
2018-10-06T06:16:35.944Z,6.13
2018-10-06T06:19:04.265Z,3.67
2018-10-06T06:21:32.601Z,6.07
2018-10-06T06:24:01.084Z,7.23
2018-10-06T06:26:29.341Z,4.10
2018-10-06T06:28:57.664Z,4.53
2018-10-06T06:31:25.984Z,3.77
2018-10-06T06:33:54.287Z,12.57
2018-10-06T06:36:22.586Z,3.80
2018-10-06T06:38:50.871Z,3.50
2018-10-06T06:41:19.173Z,3.20
2018-10-06T06:43:47.602Z,3.53
2018-10-06T06:46:15.973Z,3.17
2018-10-06T06:48:44.270Z,3.97
2018-10-06T06:51:12.664Z,3.70
2018-10-06T06:53:41.077Z,3.50
2018-10-06T06:56:09.536Z,18.30
2018-10-06T06:58:38.083Z,3.47
2018-10-06T07:01:06.620Z,5.33
2018-10-06T07:03:35.064Z,4.73
2018-10-06T07:06:03.474Z,4.03
2018-10-06T07:08:31.867Z,3.67
2018-10-06T07:11:00.362Z,3.73
2018-10-06T07:13:28.834Z,6.40
2018-10-06T07:15:57.524Z,6.70
2018-10-06T07:18:25.933Z,3.90
2018-10-06T07:20:54.307Z,4.90
2018-10-06T07:23:22.740Z,3.80
2018-10-06T07:25:51.154Z,7.50
2018-10-06T07:28:19.569Z,3.80
2018-10-06T07:30:48.001Z,7.60
2018-10-06T07:33:16.385Z,5.17
2018-10-06T07:35:44.807Z,5.07
2018-10-06T07:38:13.311Z,5.93
2018-10-06T07:40:41.815Z,3.53
2018-10-06T07:43:10.353Z,4.17
2018-10-06T07:45:38.875Z,4.70
2018-10-06T07:48:07.388Z,3.10
2018-10-06T07:50:35.925Z,8.30
2018-10-06T07:53:04.507Z,3.50
2018-10-06T07:55:32.997Z,3.17
2018-10-06T07:58:01.438Z,11.50
2018-10-06T08:00:29.908Z,9.33
2018-10-06T08:02:58.481Z,8.80
2018-10-06T08:05:27.037Z,6.30
2018-10-06T08:07:55.491Z,3.93
2018-10-06T08:10:24.004Z,3.20
2018-10-06T08:12:52.656Z,4.03
2018-10-06T08:15:21.134Z,8.87
2018-10-06T08:17:49.618Z,3.90
2018-10-06T08:20:18.009Z,8.00
2018-10-06T08:22:46.530Z,5.07
2018-10-06T08:25:15.055Z,4.23
2018-10-06T08:27:43.661Z,5.30
2018-10-06T08:30:12.210Z,5.10
2018-10-06T08:32:40.740Z,3.27
2018-10-06T08:35:09.276Z,3.00
2018-10-06T08:37:37.808Z,3.97
2018-10-06T08:40:06.381Z,7.63
2018-10-06T08:42:34.944Z,4.27
2018-10-06T08:45:03.497Z,3.83
2018-10-06T08:47:32.086Z,3.10
2018-10-06T08:50:00.656Z,4.00
2018-10-06T08:52:35.921Z,3.67
2018-10-06T08:55:04.548Z,3.50
2018-10-06T08:57:32.997Z,4.60
2018-10-06T09:00:01.471Z,6.30
2018-10-06T09:02:29.960Z,2.80
2018-10-06T09:04:58.347Z,3.57
2018-10-06T09:07:26.837Z,5.10
2018-10-06T09:09:55.200Z,2.60
2018-10-06T09:12:23.568Z,7.20
2018-10-06T09:14:52.229Z,2.93
2018-10-06T09:17:20.716Z,4.93
2018-10-06T09:19:49.233Z,5.87
2018-10-06T09:22:17.707Z,7.57
2018-10-06T09:24:46.270Z,10.73
2018-10-06T09:27:14.635Z,3.37
2018-10-06T09:29:42.980Z,2.63
2018-10-06T09:32:11.320Z,2.47
2018-10-06T09:34:39.632Z,7.23
2018-10-06T09:37:07.930Z,4.50
2018-10-06T09:39:36.236Z,5.10
2018-10-06T09:42:04.748Z,2.60
2018-10-06T09:44:33.048Z,3.13
2018-10-06T09:47:01.360Z,2.67
2018-10-06T09:49:29.649Z,12.20
2018-10-06T09:51:57.962Z,3.10
2018-10-06T09:54:26.274Z,3.13
2018-10-06T09:56:54.573Z,5.00
2018-10-06T09:59:22.887Z,6.17
2018-10-06T10:01:56.167Z,3.97
2018-10-06T10:04:24.470Z,8.53
2018-10-06T10:06:52.779Z,4.77
2018-10-06T10:09:21.090Z,4.90
2018-10-06T10:11:49.420Z,3.13
2018-10-06T10:14:17.785Z,3.50
2018-10-06T10:16:46.416Z,6.23
2018-10-06T10:19:14.786Z,4.00
2018-10-06T10:21:43.123Z,2.77
2018-10-06T10:24:11.431Z,4.47
2018-10-06T10:26:39.753Z,6.83
2018-10-06T10:29:08.172Z,3.77
2018-10-06T10:31:36.671Z,4.80
2018-10-06T10:34:05.052Z,4.20
2018-10-06T10:36:33.451Z,3.77
2018-10-06T10:39:01.883Z,3.20
2018-10-06T10:41:30.329Z,3.97
2018-10-06T10:43:58.813Z,5.50
2018-10-06T10:46:27.288Z,4.30
2018-10-06T10:48:55.803Z,4.67
2018-10-06T10:51:24.328Z,7.63
2018-10-06T10:53:52.865Z,9.03
2018-10-06T10:56:21.363Z,4.30
2018-10-06T10:58:49.766Z,4.23
2018-10-06T11:01:18.280Z,4.00
2018-10-06T11:03:46.699Z,4.87
2018-10-06T11:06:15.225Z,10.40
2018-10-06T11:08:43.672Z,4.47
2018-10-06T11:11:12.189Z,4.20
2018-10-06T11:13:40.681Z,4.53
2018-10-06T11:16:09.206Z,4.50
2018-10-06T11:18:37.628Z,3.20
2018-10-06T11:21:06.028Z,3.83
2018-10-06T11:23:34.567Z,3.60
2018-10-06T11:26:03.122Z,2.90
2018-10-06T11:28:31.601Z,3.03
2018-10-06T11:31:00.067Z,7.20
2018-10-06T11:33:28.516Z,2.70
2018-10-06T11:35:56.972Z,4.43
2018-10-06T11:38:25.408Z,2.50
2018-10-06T11:40:54.020Z,5.43
2018-10-06T11:43:22.500Z,2.97
2018-10-06T11:45:50.916Z,2.80
2018-10-06T11:48:19.378Z,6.60
2018-10-06T11:50:47.808Z,6.53
2018-10-06T11:53:16.410Z,5.53
2018-10-06T11:55:44.820Z,6.33
2018-10-06T11:58:13.291Z,8.10
2018-10-06T12:00:41.767Z,5.40
2018-10-06T12:03:10.350Z,2.37
2018-10-06T12:05:38.891Z,5.30
2018-10-06T12:08:07.360Z,2.80
2018-10-06T12:10:35.814Z,26.17
2018-10-06T12:13:04.308Z,3.00
2018-10-06T12:15:32.827Z,3.20
2018-10-06T12:18:01.324Z,3.63
2018-10-06T12:20:29.777Z,5.10
2018-10-06T12:22:58.265Z,2.60
2018-10-06T12:25:26.636Z,3.83
2018-10-06T12:27:55.028Z,2.37
2018-10-06T12:30:23.480Z,10.67
2018-10-06T12:32:52.149Z,3.67
2018-10-06T12:35:20.940Z,6.10
2018-10-06T12:37:49.311Z,4.87
2018-10-06T12:40:17.712Z,6.80
2018-10-06T12:42:46.168Z,6.37
2018-10-06T12:45:14.744Z,5.33
2018-10-06T12:47:43.248Z,6.63
2018-10-06T12:50:11.698Z,9.73
2018-10-06T12:52:40.204Z,8.57
2018-10-06T12:55:08.696Z,14.97
2018-10-06T12:57:37.140Z,7.93
2018-10-06T13:00:05.756Z,6.73
2018-10-06T13:02:34.552Z,8.60
2018-10-06T13:05:03.042Z,10.27
2018-10-06T13:07:31.633Z,12.50
2018-10-06T13:10:00.228Z,8.23
2018-10-06T13:12:28.709Z,10.50
2018-10-06T13:14:57.265Z,7.60
2018-10-06T13:17:25.856Z,8.47
2018-10-06T13:19:54.339Z,7.87
2018-10-06T13:22:22.812Z,8.27
2018-10-06T13:24:51.259Z,9.33
2018-10-06T13:27:19.716Z,9.03
2018-10-06T13:29:48.142Z,7.67
2018-10-06T13:32:16.516Z,11.33
2018-10-06T13:34:44.963Z,9.77
2018-10-06T13:37:13.372Z,7.20
2018-10-06T13:39:41.892Z,10.03
2018-10-06T13:42:10.380Z,10.03
2018-10-06T13:44:38.822Z,8.47
2018-10-06T13:47:07.404Z,8.70
2018-10-06T13:49:35.833Z,12.10
2018-10-06T13:52:04.315Z,10.50
2018-10-06T13:54:32.745Z,14.00
2018-10-06T13:57:01.156Z,10.20
2018-10-06T13:59:35.884Z,11.13
2018-10-06T14:02:04.304Z,15.03
2018-10-06T14:04:33.043Z,11.50
2018-10-06T14:07:01.572Z,10.97
2018-10-06T14:09:30.034Z,9.63
2018-10-06T14:11:58.494Z,13.20
2018-10-06T14:14:26.919Z,11.60
2018-10-06T14:16:55.340Z,14.00
2018-10-06T14:19:23.784Z,12.40
2018-10-06T14:21:52.216Z,17.30
2018-10-06T14:24:20.662Z,8.93
2018-10-06T14:26:49.101Z,10.73
2018-10-06T14:29:17.573Z,11.13
2018-10-06T14:31:46.016Z,10.00
2018-10-06T14:34:14.443Z,9.13
2018-10-06T14:36:42.913Z,8.77
2018-10-06T14:39:11.712Z,12.40
2018-10-06T14:41:40.060Z,9.57
2018-10-06T14:44:08.460Z,10.47
2018-10-06T14:46:36.757Z,17.00
2018-10-06T14:49:05.096Z,19.03
2018-10-06T14:51:33.411Z,10.47
2018-10-06T14:54:01.776Z,8.37
2018-10-06T14:56:30.135Z,9.37
2018-10-06T14:58:58.500Z,10.37
2018-10-06T15:01:26.846Z,14.70
2018-10-06T15:03:55.155Z,9.23
2018-10-06T15:06:23.495Z,9.73
2018-10-06T15:08:51.778Z,13.30
2018-10-06T15:11:20.060Z,9.30
2018-10-06T15:13:48.386Z,10.13
2018-10-06T15:16:16.721Z,10.07
2018-10-06T15:18:45.103Z,9.50
2018-10-06T15:21:13.441Z,8.17
2018-10-06T15:23:41.760Z,6.70
2018-10-06T15:26:10.058Z,7.97
2018-10-06T15:28:38.368Z,9.83
2018-10-06T15:31:06.722Z,7.97
2018-10-06T15:33:35.030Z,8.37
2018-10-06T15:36:03.443Z,13.10
2018-10-06T15:38:31.789Z,8.87
2018-10-06T15:41:00.300Z,12.73
2018-10-06T15:43:28.796Z,13.87
2018-10-06T15:45:57.316Z,9.70
2018-10-06T15:48:25.804Z,9.50
2018-10-06T15:50:54.333Z,9.57
2018-10-06T15:53:22.952Z,11.20
2018-10-06T15:55:51.494Z,10.80
2018-10-06T15:58:20.004Z,8.30
2018-10-06T16:00:48.534Z,8.90
2018-10-06T16:03:17.072Z,9.73
2018-10-06T16:05:45.511Z,6.43
2018-10-06T16:08:13.960Z,8.40
2018-10-06T16:10:42.436Z,6.50
2018-10-06T16:13:11.004Z,17.00
2018-10-06T16:15:39.447Z,7.87
2018-10-06T16:18:07.896Z,18.40
2018-10-06T16:20:36.382Z,11.70
2018-10-06T16:23:05.002Z,9.20
2018-10-06T16:25:33.523Z,10.70
2018-10-06T16:28:01.970Z,8.30
2018-10-06T16:30:30.477Z,6.27
2018-10-06T16:32:58.978Z,7.10
2018-10-06T16:35:27.465Z,8.30
2018-10-06T16:37:55.970Z,7.17
2018-10-06T16:40:24.360Z,8.13
2018-10-06T16:42:52.804Z,10.60
2018-10-06T16:45:21.252Z,15.33
2018-10-06T16:47:49.709Z,11.13
2018-10-06T16:50:18.108Z,20.77
2018-10-06T16:52:47.653Z,7.27
2018-10-06T16:55:16.062Z,10.13
2018-10-06T16:57:44.555Z,10.30
2018-10-06T17:00:13.216Z,7.63
2018-10-06T17:02:41.599Z,10.63
2018-10-06T17:05:10.076Z,12.73
2018-10-06T17:07:38.602Z,14.53
2018-10-06T17:10:07.500Z,7.90
2018-10-06T17:12:36.270Z,8.93
2018-10-06T17:15:04.856Z,8.40
2018-10-06T17:17:33.392Z,9.40
2018-10-06T17:20:01.852Z,9.10
2018-10-06T17:22:30.272Z,11.93
2018-10-06T17:24:58.715Z,13.63
2018-10-06T17:27:27.191Z,10.67
2018-10-06T17:29:55.687Z,8.37
2018-10-06T17:32:24.356Z,10.77
2018-10-06T17:34:52.812Z,11.93
2018-10-06T17:37:21.247Z,7.40
2018-10-06T17:39:49.745Z,14.03
2018-10-06T17:42:18.320Z,8.00
2018-10-06T17:44:46.793Z,7.73
2018-10-06T17:47:15.384Z,7.20
2018-10-06T17:49:44.178Z,11.53
2018-10-06T17:52:12.747Z,8.17
2018-10-06T17:54:42.130Z,10.87
2018-10-06T17:57:10.637Z,11.13
2018-10-06T17:59:39.163Z,11.20
2018-10-06T18:02:07.519Z,8.97
2018-10-06T18:04:35.984Z,8.67
2018-10-06T18:07:04.637Z,11.27
2018-10-06T18:09:33.017Z,7.73
2018-10-06T18:12:01.574Z,7.60
2018-10-06T18:14:29.965Z,7.93
2018-10-06T18:16:58.468Z,6.67
2018-10-06T18:19:26.960Z,7.03
2018-10-06T18:21:55.612Z,13.37
2018-10-06T18:24:24.160Z,12.47
2018-10-06T18:26:52.600Z,6.50
2018-10-06T18:29:21.200Z,8.23
2018-10-06T18:31:49.535Z,9.20
2018-10-06T18:34:17.953Z,14.20
2018-10-06T18:36:46.558Z,7.07
2018-10-06T18:39:15.111Z,7.13
2018-10-06T18:41:44.891Z,9.93
2018-10-06T18:44:14.674Z,10.63
2018-10-06T18:46:43.448Z,10.57
2018-10-06T18:49:12.182Z,9.27
2018-10-06T18:51:41.072Z,8.20
2018-10-06T18:54:12.337Z,7.63
2018-10-06T18:56:41.038Z,7.63
2018-10-06T18:59:09.813Z,6.27
2018-10-06T19:01:47.217Z,6.70
2018-10-06T19:04:37.741Z,7.90
2018-10-06T19:07:23.200Z,6.43
2018-10-06T19:16:41.945Z,6.47
2018-10-06T19:22:37.631Z,7.43
2018-10-06T19:31:23.156Z,16.27
2018-10-06T19:33:51.536Z,11.33
2018-10-06T19:36:19.914Z,9.70
2018-10-06T19:38:48.293Z,10.40
2018-10-06T19:41:16.700Z,6.77
2018-10-06T19:43:45.152Z,13.97
2018-10-06T19:46:13.622Z,6.77
2018-10-06T19:48:41.990Z,9.60
2018-10-06T19:51:10.357Z,10.27
2018-10-06T19:53:38.791Z,9.20
2018-10-06T19:56:07.141Z,12.23
2018-10-06T19:58:35.587Z,15.87
2018-10-06T20:01:03.883Z,8.07
2018-10-06T20:03:32.268Z,8.93
2018-10-06T20:06:00.749Z,7.10
2018-10-06T20:08:29.104Z,8.10
2018-10-06T20:10:57.552Z,7.40
2018-10-06T20:13:25.883Z,7.83
2018-10-06T20:15:54.189Z,12.93
2018-10-06T20:18:22.541Z,9.33
2018-10-06T20:20:50.891Z,10.43
2018-10-06T20:23:19.236Z,11.80
2018-10-06T20:25:47.581Z,12.87
2018-10-06T20:28:15.945Z,10.67
2018-10-06T20:30:44.232Z,9.00
2018-10-06T20:33:12.524Z,8.70
2018-10-06T20:35:40.832Z,10.60
2018-10-06T20:38:09.124Z,11.80
2018-10-06T20:40:37.488Z,6.70
2018-10-06T20:43:05.867Z,9.37
2018-10-06T20:45:34.204Z,8.93
2018-10-06T20:48:02.552Z,7.80
2018-10-06T20:50:30.897Z,8.40
2018-10-06T20:52:59.287Z,6.30
2018-10-06T20:55:27.622Z,8.67
2018-10-06T20:57:55.948Z,8.00
2018-10-06T21:00:24.440Z,8.57
2018-10-06T21:02:52.948Z,9.73
2018-10-06T21:05:21.467Z,6.03
2018-10-06T21:07:49.971Z,7.73
2018-10-06T21:10:18.471Z,6.60
2018-10-06T21:12:46.921Z,9.30
2018-10-06T21:15:15.404Z,6.80
2018-10-06T21:17:43.828Z,5.90
2018-10-06T21:20:12.284Z,7.30
2018-10-06T21:22:40.752Z,8.17
2018-10-06T21:25:09.332Z,8.70
2018-10-06T21:27:37.864Z,6.10
2018-10-06T21:30:06.318Z,11.73
2018-10-06T21:32:34.730Z,8.93
2018-10-06T21:35:03.190Z,17.53
2018-10-06T21:37:31.627Z,7.80
2018-10-06T21:40:00.197Z,8.47
2018-10-06T21:42:28.791Z,9.90
2018-10-06T21:44:57.527Z,7.43
2018-10-06T21:47:26.081Z,10.73
2018-10-06T21:49:54.625Z,11.10
2018-10-06T21:52:23.217Z,6.90
2018-10-06T21:54:51.854Z,12.00
2018-10-06T21:57:20.401Z,8.80
2018-10-06T21:59:48.888Z,7.83
2018-10-06T22:02:17.463Z,8.00
2018-10-06T22:04:46.068Z,6.30
2018-10-06T22:07:14.616Z,8.77
2018-10-06T22:09:43.149Z,8.33
2018-10-06T22:12:11.769Z,13.40
2018-10-06T22:14:40.244Z,14.57
2018-10-06T22:17:08.735Z,7.67
2018-10-06T22:19:37.181Z,8.07
2018-10-06T22:22:05.709Z,8.60
2018-10-06T22:24:34.180Z,8.40
2018-10-06T22:27:02.764Z,10.53
2018-10-06T22:29:31.225Z,11.03
2018-10-06T22:31:59.628Z,8.40
2018-10-06T22:34:28.072Z,8.53
2018-10-06T22:36:56.537Z,9.30
2018-10-06T22:39:24.960Z,7.20
2018-10-06T22:41:53.327Z,12.37
2018-10-06T22:44:21.769Z,11.87
2018-10-06T22:46:50.272Z,10.00
2018-10-06T22:49:18.749Z,7.43
2018-10-06T22:51:47.178Z,9.20
2018-10-06T22:54:15.890Z,6.73
2018-10-06T22:56:44.421Z,8.63
2018-10-06T22:59:12.907Z,8.33
2018-10-06T23:01:41.316Z,11.07
2018-10-06T23:04:09.755Z,10.80
2018-10-06T23:06:38.210Z,9.83
2018-10-06T23:09:08.358Z,10.27
2018-10-06T23:11:36.797Z,6.63
2018-10-06T23:14:05.210Z,8.73
2018-10-06T23:16:33.668Z,9.90
2018-10-06T23:19:02.123Z,7.07
2018-10-06T23:21:30.571Z,6.80
2018-10-06T23:23:59.389Z,8.57
2018-10-06T23:26:28.022Z,9.03
2018-10-06T23:28:56.420Z,6.27
2018-10-06T23:31:24.807Z,12.00
2018-10-06T23:33:53.221Z,10.00
2018-10-06T23:36:21.635Z,7.40
2018-10-06T23:38:50.096Z,7.93
2018-10-06T23:41:18.534Z,9.00
2018-10-06T23:43:46.964Z,14.03
2018-10-06T23:46:15.598Z,10.00
2018-10-06T23:48:44.084Z,10.17
2018-10-06T23:51:12.635Z,10.23
2018-10-06T23:53:41.153Z,10.40
2018-10-06T23:56:09.675Z,8.23
2018-10-06T23:58:38.056Z,10.43
